sensor_id;sensor_type;location;lat;lon;timestamp;P1;durP1;ratioP1;P2;durP2;ratioP2
62030;SDS011;62035;52.094;5.112;2023-04-24T00:00:46;6.95;;;1.77;;
62030;SDS011;62035;52.094;5.112;2023-04-24T00:03:14;2.33;;;1.38;;
62030;SDS011;62035;52.094;5.112;2023-04-24T00:05:42;1.75;;;1.23;;
62030;SDS011;62035;52.094;5.112;2023-04-24T00:08:09;5.55;;;1.60;;
62030;SDS011;62035;52.094;5.112;2023-04-24T00:10:37;3.50;;;1.65;;
62030;SDS011;62035;52.094;5.112;2023-04-24T00:13:06;3.47;;;1.80;;
62030;SDS011;62035;52.094;5.112;2023-04-24T00:15:33;3.30;;;2.03;;
62030;SDS011;62035;52.094;5.112;2023-04-24T00:18:01;3.20;;;2.10;;
62030;SDS011;62035;52.094;5.112;2023-04-24T00:20:29;3.10;;;2.05;;
62030;SDS011;62035;52.094;5.112;2023-04-24T00:22:58;3.28;;;2.03;;
62030;SDS011;62035;52.094;5.112;2023-04-24T00:25:25;3.35;;;1.92;;
62030;SDS011;62035;52.094;5.112;2023-04-24T00:27:53;2.90;;;2.03;;
62030;SDS011;62035;52.094;5.112;2023-04-24T00:30:22;3.20;;;2.00;;
62030;SDS011;62035;52.094;5.112;2023-04-24T00:32:50;2.50;;;1.98;;
62030;SDS011;62035;52.094;5.112;2023-04-24T00:35:17;3.65;;;2.30;;
62030;SDS011;62035;52.094;5.112;2023-04-24T00:37:45;3.38;;;2.75;;
62030;SDS011;62035;52.094;5.112;2023-04-24T00:40:13;4.00;;;2.80;;
62030;SDS011;62035;52.094;5.112;2023-04-24T00:42:41;4.47;;;2.95;;
62030;SDS011;62035;52.094;5.112;2023-04-24T00:45:10;6.05;;;3.40;;
62030;SDS011;62035;52.094;5.112;2023-04-24T00:47:40;4.55;;;3.10;;
62030;SDS011;62035;52.094;5.112;2023-04-24T00:50:09;4.65;;;3.53;;
62030;SDS011;62035;52.094;5.112;2023-04-24T00:52:39;5.63;;;3.80;;
62030;SDS011;62035;52.094;5.112;2023-04-24T00:55:08;7.35;;;3.40;;
62030;SDS011;62035;52.094;5.112;2023-04-24T00:57:36;6.28;;;3.58;;
62030;SDS011;62035;52.094;5.112;2023-04-24T01:00:04;5.80;;;4.13;;
62030;SDS011;62035;52.094;5.112;2023-04-24T01:02:38;6.30;;;4.05;;
62030;SDS011;62035;52.094;5.112;2023-04-24T01:07:37;7.18;;;3.80;;
62030;SDS011;62035;52.094;5.112;2023-04-24T01:10:09;5.57;;;3.80;;
62030;SDS011;62035;52.094;5.112;2023-04-24T01:12:38;5.70;;;4.15;;
62030;SDS011;62035;52.094;5.112;2023-04-24T01:15:06;5.70;;;4.28;;
62030;SDS011;62035;52.094;5.112;2023-04-24T01:17:35;5.72;;;4.72;;
62030;SDS011;62035;52.094;5.112;2023-04-24T01:20:06;8.25;;;4.95;;
62030;SDS011;62035;52.094;5.112;2023-04-24T01:22:36;7.60;;;5.07;;
62030;SDS011;62035;52.094;5.112;2023-04-24T01:25:04;7.88;;;5.45;;
62030;SDS011;62035;52.094;5.112;2023-04-24T01:27:32;7.45;;;4.95;;
62030;SDS011;62035;52.094;5.112;2023-04-24T01:30:00;7.65;;;4.78;;
62030;SDS011;62035;52.094;5.112;2023-04-24T01:32:28;10.55;;;5.63;;
62030;SDS011;62035;52.094;5.112;2023-04-24T01:34:56;8.68;;;5.25;;
62030;SDS011;62035;52.094;5.112;2023-04-24T01:37:24;9.63;;;5.50;;
62030;SDS011;62035;52.094;5.112;2023-04-24T01:39:53;7.43;;;5.57;;
62030;SDS011;62035;52.094;5.112;2023-04-24T01:42:21;8.80;;;5.43;;
62030;SDS011;62035;52.094;5.112;2023-04-24T01:44:49;9.93;;;5.18;;
62030;SDS011;62035;52.094;5.112;2023-04-24T01:47:17;7.63;;;5.25;;
62030;SDS011;62035;52.094;5.112;2023-04-24T01:49:46;7.60;;;5.00;;
62030;SDS011;62035;52.094;5.112;2023-04-24T01:52:15;7.43;;;4.68;;
62030;SDS011;62035;52.094;5.112;2023-04-24T01:54:44;6.50;;;4.68;;
62030;SDS011;62035;52.094;5.112;2023-04-24T01:57:13;7.38;;;4.78;;
62030;SDS011;62035;52.094;5.112;2023-04-24T01:59:43;6.60;;;4.72;;
62030;SDS011;62035;52.094;5.112;2023-04-24T02:02:10;6.40;;;4.82;;
62030;SDS011;62035;52.094;5.112;2023-04-24T02:04:38;8.10;;;4.78;;
62030;SDS011;62035;52.094;5.112;2023-04-24T02:07:06;7.45;;;4.80;;
62030;SDS011;62035;52.094;5.112;2023-04-24T02:09:34;8.52;;;4.63;;
62030;SDS011;62035;52.094;5.112;2023-04-24T02:12:01;6.05;;;4.50;;
62030;SDS011;62035;52.094;5.112;2023-04-24T02:14:30;7.75;;;4.55;;
62030;SDS011;62035;52.094;5.112;2023-04-24T02:16:58;5.85;;;4.20;;
62030;SDS011;62035;52.094;5.112;2023-04-24T02:19:26;5.35;;;4.25;;
62030;SDS011;62035;52.094;5.112;2023-04-24T02:21:54;6.65;;;4.55;;
62030;SDS011;62035;52.094;5.112;2023-04-24T02:24:21;5.70;;;4.00;;
62030;SDS011;62035;52.094;5.112;2023-04-24T02:26:49;5.85;;;3.75;;
62030;SDS011;62035;52.094;5.112;2023-04-24T02:29:16;5.20;;;3.88;;
62030;SDS011;62035;52.094;5.112;2023-04-24T02:31:45;6.72;;;3.85;;
62030;SDS011;62035;52.094;5.112;2023-04-24T02:34:13;5.05;;;3.72;;
62030;SDS011;62035;52.094;5.112;2023-04-24T02:36:42;6.43;;;4.05;;
62030;SDS011;62035;52.094;5.112;2023-04-24T02:39:09;7.15;;;4.07;;
62030;SDS011;62035;52.094;5.112;2023-04-24T02:41:37;5.45;;;3.83;;
62030;SDS011;62035;52.094;5.112;2023-04-24T02:44:04;6.05;;;4.22;;
62030;SDS011;62035;52.094;5.112;2023-04-24T02:46:32;6.95;;;4.10;;
62030;SDS011;62035;52.094;5.112;2023-04-24T02:49:01;5.30;;;4.03;;
62030;SDS011;62035;52.094;5.112;2023-04-24T02:51:29;6.15;;;4.38;;
62030;SDS011;62035;52.094;5.112;2023-04-24T02:53:57;6.15;;;4.60;;
62030;SDS011;62035;52.094;5.112;2023-04-24T02:56:24;6.88;;;4.45;;
62030;SDS011;62035;52.094;5.112;2023-04-24T02:58:52;6.60;;;4.70;;
62030;SDS011;62035;52.094;5.112;2023-04-24T03:01:20;8.73;;;4.90;;
62030;SDS011;62035;52.094;5.112;2023-04-24T03:03:47;7.00;;;4.85;;
62030;SDS011;62035;52.094;5.112;2023-04-24T03:06:16;9.20;;;5.13;;
62030;SDS011;62035;52.094;5.112;2023-04-24T03:08:44;7.28;;;4.93;;
62030;SDS011;62035;52.094;5.112;2023-04-24T03:11:11;10.82;;;5.38;;
62030;SDS011;62035;52.094;5.112;2023-04-24T03:13:39;8.52;;;5.55;;
62030;SDS011;62035;52.094;5.112;2023-04-24T03:16:06;7.45;;;5.07;;
62030;SDS011;62035;52.094;5.112;2023-04-24T03:18:34;8.77;;;4.60;;
62030;SDS011;62035;52.094;5.112;2023-04-24T03:21:02;9.20;;;4.70;;
62030;SDS011;62035;52.094;5.112;2023-04-24T03:23:31;9.20;;;5.03;;
62030;SDS011;62035;52.094;5.112;2023-04-24T03:25:59;7.40;;;4.55;;
62030;SDS011;62035;52.094;5.112;2023-04-24T03:28:28;5.85;;;4.18;;
62030;SDS011;62035;52.094;5.112;2023-04-24T03:30:55;10.80;;;5.20;;
62030;SDS011;62035;52.094;5.112;2023-04-24T03:33:23;8.98;;;4.70;;
62030;SDS011;62035;52.094;5.112;2023-04-24T03:35:50;6.80;;;4.35;;
62030;SDS011;62035;52.094;5.112;2023-04-24T03:38:18;7.88;;;3.95;;
62030;SDS011;62035;52.094;5.112;2023-04-24T03:40:47;6.68;;;3.67;;
62030;SDS011;62035;52.094;5.112;2023-04-24T03:43:15;10.25;;;3.85;;
62030;SDS011;62035;52.094;5.112;2023-04-24T03:45:42;7.50;;;4.20;;
62030;SDS011;62035;52.094;5.112;2023-04-24T03:48:10;7.30;;;3.92;;
62030;SDS011;62035;52.094;5.112;2023-04-24T03:50:37;7.78;;;4.20;;
62030;SDS011;62035;52.094;5.112;2023-04-24T03:53:05;9.07;;;4.82;;
62030;SDS011;62035;52.094;5.112;2023-04-24T03:55:33;7.70;;;4.45;;
62030;SDS011;62035;52.094;5.112;2023-04-24T03:58:03;8.85;;;4.90;;
62030;SDS011;62035;52.094;5.112;2023-04-24T04:00:31;9.48;;;4.60;;
62030;SDS011;62035;52.094;5.112;2023-04-24T04:03:00;7.43;;;4.57;;
62030;SDS011;62035;52.094;5.112;2023-04-24T04:05:28;7.85;;;4.97;;
62030;SDS011;62035;52.094;5.112;2023-04-24T04:07:55;7.53;;;4.72;;
62030;SDS011;62035;52.094;5.112;2023-04-24T04:10:23;10.30;;;5.50;;
62030;SDS011;62035;52.094;5.112;2023-04-24T04:12:50;11.20;;;5.45;;
62030;SDS011;62035;52.094;5.112;2023-04-24T04:15:19;9.25;;;5.80;;
62030;SDS011;62035;52.094;5.112;2023-04-24T04:17:47;7.78;;;4.90;;
62030;SDS011;62035;52.094;5.112;2023-04-24T04:20:14;9.07;;;4.88;;
62030;SDS011;62035;52.094;5.112;2023-04-24T04:22:42;7.07;;;4.72;;
62030;SDS011;62035;52.094;5.112;2023-04-24T04:25:10;7.28;;;4.80;;
62030;SDS011;62035;52.094;5.112;2023-04-24T04:27:39;7.80;;;4.72;;
62030;SDS011;62035;52.094;5.112;2023-04-24T04:30:07;8.63;;;5.32;;
62030;SDS011;62035;52.094;5.112;2023-04-24T04:32:37;7.97;;;4.30;;
62030;SDS011;62035;52.094;5.112;2023-04-24T04:35:05;8.80;;;5.07;;
62030;SDS011;62035;52.094;5.112;2023-04-24T04:37:33;9.52;;;5.45;;
62030;SDS011;62035;52.094;5.112;2023-04-24T04:40:01;10.52;;;5.47;;
62030;SDS011;62035;52.094;5.112;2023-04-24T04:42:32;13.45;;;6.10;;
62030;SDS011;62035;52.094;5.112;2023-04-24T04:45:00;11.80;;;5.15;;
62030;SDS011;62035;52.094;5.112;2023-04-24T04:47:29;9.90;;;5.15;;
62030;SDS011;62035;52.094;5.112;2023-04-24T04:49:58;8.82;;;5.22;;
62030;SDS011;62035;52.094;5.112;2023-04-24T04:52:26;8.40;;;4.97;;
62030;SDS011;62035;52.094;5.112;2023-04-24T04:54:54;8.80;;;5.07;;
62030;SDS011;62035;52.094;5.112;2023-04-24T04:57:21;7.40;;;4.43;;
62030;SDS011;62035;52.094;5.112;2023-04-24T04:59:49;6.38;;;4.00;;
62030;SDS011;62035;52.094;5.112;2023-04-24T05:02:16;5.88;;;3.40;;
62030;SDS011;62035;52.094;5.112;2023-04-24T05:04:44;4.60;;;2.88;;
62030;SDS011;62035;52.094;5.112;2023-04-24T05:07:13;3.33;;;1.90;;
62030;SDS011;62035;52.094;5.112;2023-04-24T05:09:40;3.97;;;1.48;;
62030;SDS011;62035;52.094;5.112;2023-04-24T05:12:08;2.40;;;1.08;;
62030;SDS011;62035;52.094;5.112;2023-04-24T05:14:36;1.60;;;0.98;;
62030;SDS011;62035;52.094;5.112;2023-04-24T05:17:03;1.67;;;0.90;;
62030;SDS011;62035;52.094;5.112;2023-04-24T05:19:31;2.05;;;0.80;;
62030;SDS011;62035;52.094;5.112;2023-04-24T05:22:01;1.50;;;0.70;;
62030;SDS011;62035;52.094;5.112;2023-04-24T05:24:33;2.72;;;0.77;;
62030;SDS011;62035;52.094;5.112;2023-04-24T05:27:01;0.85;;;0.70;;
62030;SDS011;62035;52.094;5.112;2023-04-24T05:29:30;3.65;;;0.75;;
62030;SDS011;62035;52.094;5.112;2023-04-24T05:31:59;2.13;;;0.90;;
62030;SDS011;62035;52.094;5.112;2023-04-24T05:34:27;2.55;;;1.00;;
62030;SDS011;62035;52.094;5.112;2023-04-24T05:36:54;3.70;;;1.20;;
62030;SDS011;62035;52.094;5.112;2023-04-24T05:39:22;3.10;;;1.20;;
62030;SDS011;62035;52.094;5.112;2023-04-24T05:41:52;3.60;;;1.20;;
62030;SDS011;62035;52.094;5.112;2023-04-24T05:44:19;4.53;;;1.40;;
62030;SDS011;62035;52.094;5.112;2023-04-24T05:46:47;2.35;;;1.67;;
62030;SDS011;62035;52.094;5.112;2023-04-24T05:49:14;3.80;;;1.75;;
62030;SDS011;62035;52.094;5.112;2023-04-24T05:51:42;3.03;;;1.63;;
62030;SDS011;62035;52.094;5.112;2023-04-24T05:54:10;4.60;;;1.90;;
62030;SDS011;62035;52.094;5.112;2023-04-24T05:56:38;2.85;;;1.75;;
62030;SDS011;62035;52.094;5.112;2023-04-24T05:59:07;5.30;;;2.17;;
62030;SDS011;62035;52.094;5.112;2023-04-24T06:01:35;3.55;;;2.38;;
62030;SDS011;62035;52.094;5.112;2023-04-24T06:04:03;3.80;;;2.17;;
62030;SDS011;62035;52.094;5.112;2023-04-24T06:06:31;2.10;;;1.70;;
62030;SDS011;62035;52.094;5.112;2023-04-24T06:08:59;6.07;;;3.67;;
62030;SDS011;62035;52.094;5.112;2023-04-24T06:11:26;9.20;;;4.65;;
62030;SDS011;62035;52.094;5.112;2023-04-24T06:13:54;10.68;;;5.85;;
62030;SDS011;62035;52.094;5.112;2023-04-24T06:16:23;12.73;;;6.75;;
62030;SDS011;62035;52.094;5.112;2023-04-24T06:18:51;13.20;;;7.38;;
62030;SDS011;62035;52.094;5.112;2023-04-24T06:21:18;17.15;;;7.97;;
62030;SDS011;62035;52.094;5.112;2023-04-24T06:23:46;14.27;;;7.28;;
62030;SDS011;62035;52.094;5.112;2023-04-24T06:26:14;16.92;;;8.77;;
62030;SDS011;62035;52.094;5.112;2023-04-24T06:28:42;13.38;;;8.77;;
62030;SDS011;62035;52.094;5.112;2023-04-24T06:31:10;25.88;;;10.73;;
62030;SDS011;62035;52.094;5.112;2023-04-24T06:33:39;27.00;;;12.55;;
62030;SDS011;62035;52.094;5.112;2023-04-24T06:36:07;23.77;;;11.88;;
62030;SDS011;62035;52.094;5.112;2023-04-24T06:38:35;21.83;;;13.18;;
62030;SDS011;62035;52.094;5.112;2023-04-24T06:41:02;29.25;;;12.80;;
62030;SDS011;62035;52.094;5.112;2023-04-24T06:43:30;22.50;;;12.30;;
62030;SDS011;62035;52.094;5.112;2023-04-24T06:45:58;23.75;;;12.88;;
62030;SDS011;62035;52.094;5.112;2023-04-24T06:48:29;23.95;;;12.07;;
62030;SDS011;62035;52.094;5.112;2023-04-24T06:50:58;27.10;;;11.85;;
62030;SDS011;62035;52.094;5.112;2023-04-24T06:53:25;30.73;;;10.98;;
62030;SDS011;62035;52.094;5.112;2023-04-24T06:55:53;25.83;;;11.73;;
62030;SDS011;62035;52.094;5.112;2023-04-24T06:58:20;25.40;;;10.40;;
62030;SDS011;62035;52.094;5.112;2023-04-24T07:00:48;23.98;;;9.77;;
62030;SDS011;62035;52.094;5.112;2023-04-24T07:03:16;20.58;;;10.32;;
62030;SDS011;62035;52.094;5.112;2023-04-24T07:05:43;22.27;;;10.73;;
62030;SDS011;62035;52.094;5.112;2023-04-24T07:08:13;19.50;;;9.57;;
62030;SDS011;62035;52.094;5.112;2023-04-24T07:10:42;19.40;;;9.48;;
62030;SDS011;62035;52.094;5.112;2023-04-24T07:13:11;21.48;;;9.68;;
62030;SDS011;62035;52.094;5.112;2023-04-24T07:15:38;25.58;;;9.98;;
62030;SDS011;62035;52.094;5.112;2023-04-24T07:18:07;21.85;;;9.70;;
62030;SDS011;62035;52.094;5.112;2023-04-24T07:20:34;19.35;;;8.60;;
62030;SDS011;62035;52.094;5.112;2023-04-24T07:23:02;21.13;;;8.13;;
62030;SDS011;62035;52.094;5.112;2023-04-24T07:25:31;22.25;;;8.45;;
62030;SDS011;62035;52.094;5.112;2023-04-24T07:27:58;23.95;;;6.95;;
62030;SDS011;62035;52.094;5.112;2023-04-24T07:30:26;23.65;;;8.27;;
62030;SDS011;62035;52.094;5.112;2023-04-24T07:32:55;24.38;;;7.93;;
62030;SDS011;62035;52.094;5.112;2023-04-24T07:35:22;20.55;;;7.32;;
62030;SDS011;62035;52.094;5.112;2023-04-24T07:37:51;26.15;;;7.18;;
62030;SDS011;62035;52.094;5.112;2023-04-24T07:40:19;25.98;;;7.72;;
62030;SDS011;62035;52.094;5.112;2023-04-24T07:42:49;22.92;;;6.82;;
62030;SDS011;62035;52.094;5.112;2023-04-24T07:45:19;21.20;;;6.25;;
62030;SDS011;62035;52.094;5.112;2023-04-24T07:47:46;21.92;;;6.78;;
62030;SDS011;62035;52.094;5.112;2023-04-24T07:50:14;23.13;;;6.13;;
62030;SDS011;62035;52.094;5.112;2023-04-24T07:52:41;29.90;;;5.75;;
62030;SDS011;62035;52.094;5.112;2023-04-24T07:55:09;22.90;;;5.40;;
62030;SDS011;62035;52.094;5.112;2023-04-24T07:57:37;24.65;;;6.35;;
62030;SDS011;62035;52.094;5.112;2023-04-24T08:00:06;14.52;;;3.90;;
62030;SDS011;62035;52.094;5.112;2023-04-24T08:02:35;20.20;;;5.35;;
62030;SDS011;62035;52.094;5.112;2023-04-24T08:05:03;21.02;;;4.55;;
62030;SDS011;62035;52.094;5.112;2023-04-24T08:07:32;14.68;;;3.83;;
62030;SDS011;62035;52.094;5.112;2023-04-24T08:10:01;18.17;;;4.28;;
62030;SDS011;62035;52.094;5.112;2023-04-24T08:12:29;17.23;;;3.45;;
62030;SDS011;62035;52.094;5.112;2023-04-24T08:14:56;19.35;;;4.10;;
62030;SDS011;62035;52.094;5.112;2023-04-24T08:17:25;19.92;;;3.20;;
62030;SDS011;62035;52.094;5.112;2023-04-24T08:19:53;16.25;;;3.10;;
62030;SDS011;62035;52.094;5.112;2023-04-24T08:22:27;9.05;;;3.40;;
62030;SDS011;62035;52.094;5.112;2023-04-24T08:24:54;14.27;;;2.47;;
62030;SDS011;62035;52.094;5.112;2023-04-24T08:27:22;12.20;;;2.33;;
62030;SDS011;62035;52.094;5.112;2023-04-24T08:29:50;12.25;;;2.78;;
62030;SDS011;62035;52.094;5.112;2023-04-24T08:32:20;13.13;;;2.75;;
62030;SDS011;62035;52.094;5.112;2023-04-24T08:34:49;11.10;;;2.45;;
62030;SDS011;62035;52.094;5.112;2023-04-24T08:37:18;12.75;;;3.05;;
62030;SDS011;62035;52.094;5.112;2023-04-24T08:39:46;21.58;;;2.75;;
62030;SDS011;62035;52.094;5.112;2023-04-24T08:42:13;8.90;;;2.42;;
62030;SDS011;62035;52.094;5.112;2023-04-24T08:44:43;12.70;;;3.00;;
62030;SDS011;62035;52.094;5.112;2023-04-24T08:47:12;20.90;;;3.80;;
62030;SDS011;62035;52.094;5.112;2023-04-24T08:49:39;16.90;;;2.80;;
62030;SDS011;62035;52.094;5.112;2023-04-24T08:52:08;13.85;;;3.10;;
62030;SDS011;62035;52.094;5.112;2023-04-24T08:54:38;12.05;;;3.25;;
62030;SDS011;62035;52.094;5.112;2023-04-24T08:57:09;11.50;;;2.28;;
62030;SDS011;62035;52.094;5.112;2023-04-24T08:59:38;15.35;;;2.30;;
62030;SDS011;62035;52.094;5.112;2023-04-24T09:02:08;13.55;;;3.00;;
62030;SDS011;62035;52.094;5.112;2023-04-24T09:04:37;12.37;;;2.47;;
62030;SDS011;62035;52.094;5.112;2023-04-24T09:07:08;12.40;;;2.85;;
62030;SDS011;62035;52.094;5.112;2023-04-24T09:09:41;15.40;;;3.05;;
62030;SDS011;62035;52.094;5.112;2023-04-24T09:12:09;12.07;;;2.20;;
62030;SDS011;62035;52.094;5.112;2023-04-24T09:14:37;11.20;;;2.42;;
62030;SDS011;62035;52.094;5.112;2023-04-24T09:17:08;9.52;;;2.55;;
62030;SDS011;62035;52.094;5.112;2023-04-24T09:19:36;13.70;;;3.40;;
62030;SDS011;62035;52.094;5.112;2023-04-24T09:22:04;12.35;;;2.05;;
62030;SDS011;62035;52.094;5.112;2023-04-24T09:24:34;12.02;;;2.20;;
62030;SDS011;62035;52.094;5.112;2023-04-24T09:27:02;10.93;;;2.30;;
62030;SDS011;62035;52.094;5.112;2023-04-24T09:29:30;12.45;;;3.15;;
62030;SDS011;62035;52.094;5.112;2023-04-24T09:31:58;8.57;;;1.90;;
62030;SDS011;62035;52.094;5.112;2023-04-24T09:34:44;12.40;;;2.55;;
62030;SDS011;62035;52.094;5.112;2023-04-24T09:37:28;9.05;;;2.00;;
62030;SDS011;62035;52.094;5.112;2023-04-24T09:40:11;9.95;;;1.90;;
62030;SDS011;62035;52.094;5.112;2023-04-24T09:42:45;9.70;;;2.40;;
62030;SDS011;62035;52.094;5.112;2023-04-24T09:45:18;11.73;;;2.42;;
62030;SDS011;62035;52.094;5.112;2023-04-24T09:47:45;9.50;;;2.78;;
62030;SDS011;62035;52.094;5.112;2023-04-24T09:50:18;9.43;;;2.22;;
62030;SDS011;62035;52.094;5.112;2023-04-24T09:52:46;6.20;;;1.70;;
62030;SDS011;62035;52.094;5.112;2023-04-24T09:55:24;10.55;;;2.00;;
62030;SDS011;62035;52.094;5.112;2023-04-24T09:57:52;9.75;;;2.03;;
62030;SDS011;62035;52.094;5.112;2023-04-24T10:00:22;9.63;;;1.83;;
62030;SDS011;62035;52.094;5.112;2023-04-24T10:02:55;11.45;;;1.55;;
62030;SDS011;62035;52.094;5.112;2023-04-24T10:05:26;7.68;;;1.60;;
62030;SDS011;62035;52.094;5.112;2023-04-24T10:07:57;8.35;;;1.90;;
62030;SDS011;62035;52.094;5.112;2023-04-24T10:10:29;8.90;;;1.63;;
62030;SDS011;62035;52.094;5.112;2023-04-24T10:12:58;6.53;;;1.65;;
62030;SDS011;62035;52.094;5.112;2023-04-24T10:15:27;7.18;;;1.45;;
62030;SDS011;62035;52.094;5.112;2023-04-24T10:17:55;1.70;;;1.10;;
62030;SDS011;62035;52.094;5.112;2023-04-24T10:20:27;3.33;;;1.00;;
62030;SDS011;62035;52.094;5.112;2023-04-24T10:22:57;2.78;;;1.02;;
62030;SDS011;62035;52.094;5.112;2023-04-24T10:25:27;7.97;;;1.30;;
62030;SDS011;62035;52.094;5.112;2023-04-24T10:27:59;4.28;;;1.30;;
62030;SDS011;62035;52.094;5.112;2023-04-24T10:30:29;8.50;;;1.27;;
62030;SDS011;62035;52.094;5.112;2023-04-24T10:33:00;6.10;;;1.00;;
62030;SDS011;62035;52.094;5.112;2023-04-24T10:35:30;9.70;;;1.65;;
62030;SDS011;62035;52.094;5.112;2023-04-24T10:38:01;4.50;;;1.30;;
62030;SDS011;62035;52.094;5.112;2023-04-24T10:40:35;5.13;;;1.13;;
62030;SDS011;62035;52.094;5.112;2023-04-24T10:43:04;6.28;;;1.20;;
62030;SDS011;62035;52.094;5.112;2023-04-24T10:45:35;2.90;;;1.17;;
62030;SDS011;62035;52.094;5.112;2023-04-24T10:48:04;4.18;;;1.42;;
62030;SDS011;62035;52.094;5.112;2023-04-24T10:50:43;5.00;;;1.42;;
62030;SDS011;62035;52.094;5.112;2023-04-24T10:53:13;7.90;;;1.33;;
62030;SDS011;62035;52.094;5.112;2023-04-24T10:55:46;3.83;;;1.38;;
62030;SDS011;62035;52.094;5.112;2023-04-24T10:58:16;3.70;;;1.23;;
62030;SDS011;62035;52.094;5.112;2023-04-24T11:00:55;4.95;;;1.15;;
62030;SDS011;62035;52.094;5.112;2023-04-24T11:03:26;3.40;;;1.20;;
62030;SDS011;62035;52.094;5.112;2023-04-24T11:05:56;6.45;;;1.85;;
62030;SDS011;62035;52.094;5.112;2023-04-24T11:08:27;8.15;;;1.42;;
62030;SDS011;62035;52.094;5.112;2023-04-24T11:11:03;4.75;;;1.23;;
62030;SDS011;62035;52.094;5.112;2023-04-24T11:16:42;7.70;;;1.85;;
62030;SDS011;62035;52.094;5.112;2023-04-24T11:19:18;12.05;;;1.60;;
62030;SDS011;62035;52.094;5.112;2023-04-24T11:21:54;10.02;;;2.08;;
62030;SDS011;62035;52.094;5.112;2023-04-24T11:24:29;4.85;;;1.30;;
62030;SDS011;62035;52.094;5.112;2023-04-24T11:27:05;2.03;;;1.00;;
62030;SDS011;62035;52.094;5.112;2023-04-24T11:29:40;7.22;;;0.90;;
62030;SDS011;62035;52.094;5.112;2023-04-24T11:32:23;4.60;;;0.90;;
62030;SDS011;62035;52.094;5.112;2023-04-24T11:34:53;5.13;;;1.00;;
62030;SDS011;62035;52.094;5.112;2023-04-24T11:37:23;5.07;;;1.08;;
62030;SDS011;62035;52.094;5.112;2023-04-24T11:39:54;7.68;;;1.65;;
62030;SDS011;62035;52.094;5.112;2023-04-24T11:42:25;6.28;;;1.08;;
62030;SDS011;62035;52.094;5.112;2023-04-24T11:44:53;3.88;;;1.33;;
62030;SDS011;62035;52.094;5.112;2023-04-24T11:47:29;4.10;;;1.17;;
62030;SDS011;62035;52.094;5.112;2023-04-24T11:49:59;5.38;;;1.23;;
62030;SDS011;62035;52.094;5.112;2023-04-24T11:52:28;5.63;;;1.10;;
62030;SDS011;62035;52.094;5.112;2023-04-24T11:54:56;7.22;;;1.58;;
62030;SDS011;62035;52.094;5.112;2023-04-24T11:57:25;4.18;;;1.42;;
62030;SDS011;62035;52.094;5.112;2023-04-24T11:59:54;7.18;;;1.20;;
62030;SDS011;62035;52.094;5.112;2023-04-24T12:02:22;4.65;;;1.20;;
62030;SDS011;62035;52.094;5.112;2023-04-24T12:04:52;11.25;;;2.30;;
62030;SDS011;62035;52.094;5.112;2023-04-24T12:07:20;6.20;;;1.40;;
62030;SDS011;62035;52.094;5.112;2023-04-24T12:09:49;5.47;;;1.30;;
62030;SDS011;62035;52.094;5.112;2023-04-24T12:12:24;9.95;;;1.45;;
62030;SDS011;62035;52.094;5.112;2023-04-24T12:14:54;9.52;;;1.58;;
62030;SDS011;62035;52.094;5.112;2023-04-24T12:17:24;8.45;;;1.42;;
62030;SDS011;62035;52.094;5.112;2023-04-24T12:19:57;9.38;;;1.67;;
62030;SDS011;62035;52.094;5.112;2023-04-24T12:22:26;9.02;;;1.55;;
62030;SDS011;62035;52.094;5.112;2023-04-24T12:24:58;7.07;;;2.03;;
62030;SDS011;62035;52.094;5.112;2023-04-24T12:27:30;11.27;;;1.95;;
62030;SDS011;62035;52.094;5.112;2023-04-24T12:30:00;12.57;;;1.75;;
62030;SDS011;62035;52.094;5.112;2023-04-24T12:32:31;8.40;;;2.15;;
62030;SDS011;62035;52.094;5.112;2023-04-24T12:34:59;10.70;;;1.85;;
62030;SDS011;62035;52.094;5.112;2023-04-24T12:37:26;12.77;;;2.17;;
62030;SDS011;62035;52.094;5.112;2023-04-24T12:40:03;9.02;;;1.65;;
62030;SDS011;62035;52.094;5.112;2023-04-24T12:42:35;9.93;;;2.42;;
62030;SDS011;62035;52.094;5.112;2023-04-24T12:45:09;5.82;;;1.50;;
62030;SDS011;62035;52.094;5.112;2023-04-24T12:47:38;15.07;;;1.77;;
62030;SDS011;62035;52.094;5.112;2023-04-24T12:50:07;9.80;;;2.25;;
62030;SDS011;62035;52.094;5.112;2023-04-24T12:52:36;17.23;;;2.05;;
62030;SDS011;62035;52.094;5.112;2023-04-24T12:55:05;8.40;;;2.05;;
62030;SDS011;62035;52.094;5.112;2023-04-24T13:00:07;6.55;;;1.75;;
62030;SDS011;62035;52.094;5.112;2023-04-24T13:02:35;8.82;;;1.70;;
62030;SDS011;62035;52.094;5.112;2023-04-24T13:05:03;11.48;;;2.50;;
62030;SDS011;62035;52.094;5.112;2023-04-24T13:07:32;11.50;;;2.75;;
62030;SDS011;62035;52.094;5.112;2023-04-24T13:10:00;13.93;;;2.78;;
62030;SDS011;62035;52.094;5.112;2023-04-24T13:12:28;14.23;;;2.75;;
62030;SDS011;62035;52.094;5.112;2023-04-24T13:14:57;14.48;;;2.70;;
62030;SDS011;62035;52.094;5.112;2023-04-24T13:17:25;21.00;;;3.30;;
62030;SDS011;62035;52.094;5.112;2023-04-24T13:19:53;11.43;;;2.28;;
62030;SDS011;62035;52.094;5.112;2023-04-24T13:22:22;9.65;;;2.33;;
62030;SDS011;62035;52.094;5.112;2023-04-24T13:24:49;9.70;;;2.70;;
62030;SDS011;62035;52.094;5.112;2023-04-24T13:27:17;14.77;;;2.40;;
62030;SDS011;62035;52.094;5.112;2023-04-24T13:29:45;13.82;;;2.45;;
62030;SDS011;62035;52.094;5.112;2023-04-24T13:32:14;10.88;;;2.95;;
62030;SDS011;62035;52.094;5.112;2023-04-24T13:34:42;11.60;;;2.50;;
62030;SDS011;62035;52.094;5.112;2023-04-24T13:37:10;15.27;;;2.45;;
62030;SDS011;62035;52.094;5.112;2023-04-24T13:39:37;11.43;;;2.28;;
62030;SDS011;62035;52.094;5.112;2023-04-24T13:42:07;7.90;;;2.28;;
62030;SDS011;62035;52.094;5.112;2023-04-24T13:44:34;10.90;;;2.42;;
62030;SDS011;62035;52.094;5.112;2023-04-24T13:47:02;13.70;;;2.40;;
62030;SDS011;62035;52.094;5.112;2023-04-24T13:49:31;17.75;;;3.03;;
62030;SDS011;62035;52.094;5.112;2023-04-24T13:51:59;9.50;;;2.20;;
62030;SDS011;62035;52.094;5.112;2023-04-24T13:54:27;9.05;;;2.63;;
62030;SDS011;62035;52.094;5.112;2023-04-24T13:56:55;13.60;;;2.47;;
62030;SDS011;62035;52.094;5.112;2023-04-24T13:59:25;13.20;;;2.25;;
62030;SDS011;62035;52.094;5.112;2023-04-24T14:01:52;9.02;;;2.75;;
62030;SDS011;62035;52.094;5.112;2023-04-24T14:04:20;12.80;;;2.78;;
62030;SDS011;62035;52.094;5.112;2023-04-24T14:06:49;12.57;;;3.25;;
62030;SDS011;62035;52.094;5.112;2023-04-24T14:09:17;10.77;;;2.58;;
62030;SDS011;62035;52.094;5.112;2023-04-24T14:11:44;11.65;;;2.78;;
62030;SDS011;62035;52.094;5.112;2023-04-24T14:14:12;11.80;;;3.28;;
62030;SDS011;62035;52.094;5.112;2023-04-24T14:16:40;11.77;;;2.58;;
62030;SDS011;62035;52.094;5.112;2023-04-24T14:19:08;11.75;;;2.90;;
62030;SDS011;62035;52.094;5.112;2023-04-24T14:21:35;12.48;;;2.58;;
62030;SDS011;62035;52.094;5.112;2023-04-24T14:24:04;11.55;;;2.50;;
62030;SDS011;62035;52.094;5.112;2023-04-24T14:26:32;14.00;;;2.60;;
62030;SDS011;62035;52.094;5.112;2023-04-24T14:28:59;10.13;;;2.50;;
62030;SDS011;62035;52.094;5.112;2023-04-24T14:31:27;9.18;;;2.72;;
62030;SDS011;62035;52.094;5.112;2023-04-24T14:33:55;9.68;;;3.22;;
62030;SDS011;62035;52.094;5.112;2023-04-24T14:36:23;10.35;;;2.88;;
62030;SDS011;62035;52.094;5.112;2023-04-24T14:38:51;10.50;;;3.38;;
62030;SDS011;62035;52.094;5.112;2023-04-24T14:41:20;15.40;;;3.25;;
62030;SDS011;62035;52.094;5.112;2023-04-24T14:43:47;13.93;;;3.28;;
62030;SDS011;62035;52.094;5.112;2023-04-24T14:46:15;13.40;;;3.25;;
62030;SDS011;62035;52.094;5.112;2023-04-24T14:48:43;11.07;;;2.83;;
62030;SDS011;62035;52.094;5.112;2023-04-24T14:51:10;13.73;;;2.53;;
62030;SDS011;62035;52.094;5.112;2023-04-24T14:53:38;10.32;;;3.13;;
62030;SDS011;62035;52.094;5.112;2023-04-24T14:56:06;8.88;;;2.70;;
62030;SDS011;62035;52.094;5.112;2023-04-24T14:58:35;12.65;;;2.92;;
62030;SDS011;62035;52.094;5.112;2023-04-24T15:01:03;11.80;;;2.80;;